Time;durP1;ratioP1;P1;durP2;ratioP2;P2;SDS_P1;SDS_P2;PMS_P1;PMS_P2;Temp;Humidity;BMP_temperature;BMP_pressure;BME280_temperature;BME280_humidity;BME280_pressure;Samples;Min_cycle;Max_cycle;Signal;HPM_P1;HPM_P2
2023/06/13 00:00:42;;;;;;;5.97;3.63;;;21.20;57.80;;;;;;6276549;28;20487;-79
2023/06/13 00:03:47;;;;;;;6.45;3.70;;;21.20;57.90;;;;;;6257312;28;20140;-79
2023/06/13 00:06:50;;;;;;;5.50;3.63;;;21.30;56.80;;;;;;6250863;28;20041;-80
2023/06/13 00:09:53;;;;;;;5.43;3.50;;;21.20;57.60;;;;;;6251272;28;20412;-80
2023/06/13 00:12:55;;;;;;;7.38;3.70;;;21.10;56.80;;;;;;6250788;28;20050;-80
2023/06/13 00:15:58;;;;;;;6.68;3.47;;;21.10;57.60;;;;;;6251483;28;20049;-80
2023/06/13 00:19:01;;;;;;;6.07;3.63;;;21.00;57.80;;;;;;6250332;28;20045;-80
2023/06/13 00:22:03;;;;;;;7.00;3.70;;;20.80;57.60;;;;;;6251321;28;20053;-80
2023/06/13 00:25:07;;;;;;;5.45;3.60;;;20.80;58.10;;;;;;6250815;28;20045;-80
2023/06/13 00:28:09;;;;;;;6.38;3.95;;;20.90;57.90;;;;;;6249944;28;20068;-80
2023/06/13 00:31:11;;;;;;;7.35;3.50;;;20.70;57.00;;;;;;6248914;28;20395;-80
2023/06/13 00:34:13;;;;;;;7.22;3.70;;;20.60;57.80;;;;;;6250872;28;20049;-80
2023/06/13 00:37:16;;;;;;;6.78;3.47;;;20.80;58.10;;;;;;6265210;28;20495;-80
2023/06/13 00:40:20;;;;;;;5.80;3.50;;;20.70;57.30;;;;;;6250389;28;20128;-78
2023/06/13 00:43:21;;;;;;;5.10;3.40;;;20.80;57.80;;;;;;6250153;28;20053;-78
2023/06/13 00:46:29;;;;;;;8.45;3.35;;;20.90;58.10;;;;;;6250216;28;20484;-79
2023/06/13 00:49:31;;;;;;;6.47;3.33;;;20.90;57.60;;;;;;6250334;28;20060;-79
2023/06/13 00:52:33;;;;;;;5.40;3.55;;;20.80;58.00;;;;;;6249716;28;20529;-79
2023/06/13 00:55:38;;;;;;;7.25;3.10;;;20.70;58.60;;;;;;6249615;28;20046;-79
2023/06/13 00:58:40;;;;;;;6.10;3.55;;;20.40;58.80;;;;;;6249480;28;20046;-78
2023/06/13 01:01:43;;;;;;;6.18;3.20;;;20.50;58.90;;;;;;6250243;28;20056;-79
2023/06/13 01:04:47;;;;;;;5.88;3.53;;;20.50;59.60;;;;;;6266555;28;20048;-78
2023/06/13 01:07:49;;;;;;;7.07;3.15;;;20.60;58.80;;;;;;6264015;28;20179;-78
2023/06/13 01:11:03;;;;;;;6.65;3.72;;;20.60;60.00;;;;;;6249743;28;20128;-78
2023/06/13 01:14:14;;;;;;;7.38;3.55;;;20.50;60.30;;;;;;6249687;28;20053;-76
2023/06/13 01:17:19;;;;;;;5.50;3.03;;;20.50;60.00;;;;;;6248683;28;20044;-77
2023/06/13 01:20:22;;;;;;;6.88;3.00;;;20.50;59.80;;;;;;6249777;28;20049;-78
2023/06/13 01:23:37;;;;;;;7.88;3.50;;;20.40;59.30;;;;;;6249260;28;20399;-77
2023/06/13 01:26:50;;;;;;;5.75;3.40;;;20.30;59.60;;;;;;6249150;28;20041;-78
2023/06/13 01:29:53;;;;;;;5.70;3.30;;;20.30;60.00;;;;;;6262203;28;20060;-77
2023/06/13 01:32:55;;;;;;;6.00;3.22;;;20.10;60.60;;;;;;6261128;28;20065;-77
2023/06/13 01:35:57;;;;;;;6.82;3.42;;;20.10;61.30;;;;;;6257460;28;20060;-78
2023/06/13 01:38:59;;;;;;;8.57;3.22;;;20.10;61.50;;;;;;6273002;28;20048;-78
2023/06/13 01:42:03;;;;;;;6.72;3.25;;;20.00;61.00;;;;;;6252341;28;20073;-78
2023/06/13 01:45:06;;;;;;;7.82;3.40;;;20.00;61.30;;;;;;6249174;28;20060;-79
2023/06/13 01:48:11;;;;;;;;;;;19.80;61.40;;;;;;6248700;28;20057;-79
2023/06/13 01:51:20;;;;;;;5.50;3.28;;;19.80;61.50;;;;;;6249027;28;19928;-79
2023/06/13 01:54:25;;;;;;;5.22;2.90;;;19.70;62.10;;;;;;6248942;28;20052;-79
2023/06/13 01:57:36;;;;;;;6.68;3.08;;;19.80;61.20;;;;;;6253634;28;20447;-79
2023/06/13 02:00:42;;;;;;;7.18;2.92;;;19.80;61.10;;;;;;6256964;28;20099;-78
2023/06/13 02:03:43;;;;;;;8.10;3.15;;;19.80;60.80;;;;;;6248583;28;20049;-78
2023/06/13 02:06:46;;;;;;;6.25;3.30;;;19.90;60.80;;;;;;6247495;28;20041;-78
2023/06/13 02:09:48;;;;;;;5.20;3.30;;;19.90;60.90;;;;;;6248058;28;20049;-78
2023/06/13 02:12:51;;;;;;;7.57;3.60;;;19.80;60.70;;;;;;6248296;28;20523;-78
2023/06/13 02:15:53;;;;;;;5.97;3.00;;;19.60;61.20;;;;;;6248611;28;20049;-79
2023/06/13 02:18:55;;;;;;;7.22;3.25;;;19.40;62.50;;;;;;6247737;28;20060;-78
2023/06/13 02:21:57;;;;;;;6.18;3.20;;;19.40;63.30;;;;;;6248218;28;20068;-79
2023/06/13 02:24:59;;;;;;;7.57;3.10;;;19.60;62.60;;;;;;6248303;28;20049;-78
2023/06/13 02:28:02;;;;;;;6.88;3.33;;;19.40;63.70;;;;;;6262215;28;20131;-79
2023/06/13 02:31:04;;;;;;;5.72;3.10;;;19.50;63.50;;;;;;6246229;28;20052;-79
2023/06/13 02:34:06;;;;;;;6.65;3.47;;;19.40;63.50;;;;;;6231960;28;20045;-78
2023/06/13 02:37:08;;;;;;;8.77;3.78;;;19.20;62.90;;;;;;6247491;28;20097;-78
2023/06/13 02:40:10;;;;;;;6.72;3.33;;;19.00;64.30;;;;;;6262980;28;20053;-78
2023/06/13 02:43:14;;;;;;;5.18;3.20;;;18.90;64.80;;;;;;6247721;28;20076;-78
2023/06/13 02:46:16;;;;;;;4.65;3.03;;;19.00;64.70;;;;;;6223207;28;20050;-78
2023/06/13 02:49:18;;;;;;;6.15;3.10;;;19.10;64.70;;;;;;6242374;28;20053;-79
2023/06/13 02:52:21;;;;;;;6.45;3.28;;;19.10;64.30;;;;;;6247566;28;20113;-80
2023/06/13 02:55:24;;;;;;;5.88;3.42;;;19.00;64.20;;;;;;6268077;28;20376;-78
2023/06/13 02:58:27;;;;;;;7.63;3.30;;;19.00;64.40;;;;;;6259246;28;20049;-78
2023/06/13 03:01:30;;;;;;;5.53;3.30;;;18.90;65.30;;;;;;6247599;28;20484;-79
2023/06/13 03:04:32;;;;;;;5.30;3.10;;;18.80;66.00;;;;;;6247529;28;20144;-79
2023/06/13 03:07:34;;;;;;;5.60;3.10;;;18.70;66.40;;;;;;6251630;28;20045;-79
2023/06/13 03:10:36;;;;;;;5.80;3.20;;;18.60;66.50;;;;;;6250700;28;20053;-79
2023/06/13 03:13:39;;;;;;;5.20;3.10;;;18.50;67.10;;;;;;6247455;28;20050;-78
2023/06/13 03:16:41;;;;;;;5.82;3.20;;;18.40;67.50;;;;;;6263823;28;20056;-78
2023/06/13 03:19:43;;;;;;;6.47;3.50;;;18.40;67.90;;;;;;6258879;28;20050;-78
2023/06/13 03:22:45;;;;;;;8.25;3.60;;;18.40;67.50;;;;;;6267371;28;20509;-78
2023/06/13 03:25:46;;;;;;;5.85;3.20;;;18.40;66.60;;;;;;6270877;28;20064;-78
2023/06/13 03:28:50;;;;;;;6.63;3.58;;;18.40;66.10;;;;;;6265112;28;20048;-79
2023/06/13 03:31:51;;;;;;;5.70;3.08;;;18.10;68.80;;;;;;6267149;28;20411;-79
2023/06/13 03:34:53;;;;;;;4.93;2.92;;;18.10;69.40;;;;;;6251972;28;20064;-77
2023/06/13 03:37:55;;;;;;;5.88;3.58;;;18.00;68.70;;;;;;6251055;28;20045;-77
2023/06/13 03:40:57;;;;;;;8.68;3.58;;;18.00;66.90;;;;;;6251564;28;20045;-78
2023/06/13 03:44:00;;;;;;;5.60;3.28;;;18.10;67.20;;;;;;6251731;28;20062;-77
2023/06/13 03:47:02;;;;;;;6.35;3.70;;;18.00;66.70;;;;;;6253568;28;20042;-78
2023/06/13 03:50:05;;;;;;;6.93;3.40;;;18.00;67.10;;;;;;6278093;28;20045;-77
2023/06/13 03:53:07;;;;;;;8.05;3.58;;;18.00;68.70;;;;;;6276563;28;20052;-77
2023/06/13 03:56:09;;;;;;;5.65;3.30;;;18.00;67.30;;;;;;6260021;28;20053;-77
2023/06/13 03:59:12;;;;;;;6.35;3.42;;;17.90;67.50;;;;;;6250595;28;20042;-76
2023/06/13 04:02:14;;;;;;;6.32;3.30;;;17.80;68.80;;;;;;6251627;28;20065;-77
2023/06/13 04:05:16;;;;;;;8.18;3.40;;;17.80;68.40;;;;;;6250036;28;20069;-76
2023/06/13 04:08:19;;;;;;;6.57;3.63;;;17.90;68.30;;;;;;6275232;28;20383;-76
2023/06/13 04:11:21;;;;;;;6.55;3.45;;;17.90;68.60;;;;;;6255645;28;20053;-75
2023/06/13 04:14:24;;;;;;;6.63;3.78;;;17.90;69.40;;;;;;6251040;28;20045;-79
2023/06/13 04:17:26;;;;;;;7.63;3.53;;;17.90;68.40;;;;;;6269372;28;20045;-78
2023/06/13 04:20:28;;;;;;;7.20;3.78;;;17.90;69.00;;;;;;6273458;28;20060;-78
2023/06/13 04:23:30;;;;;;;6.43;3.70;;;17.80;70.10;;;;;;6274040;28;20064;-77
2023/06/13 04:26:32;;;;;;;7.75;3.42;;;17.80;70.60;;;;;;6266487;28;20050;-78
2023/06/13 04:29:35;;;;;;;6.40;3.33;;;17.80;70.10;;;;;;6250067;28;20046;-78
2023/06/13 04:32:39;;;;;;;9.32;3.72;;;17.60;71.10;;;;;;6249311;28;20053;-78
2023/06/13 04:35:44;;;;;;;7.75;4.03;;;17.50;72.20;;;;;;6251025;28;20077;-78
2023/06/13 04:38:46;;;;;;;7.03;3.47;;;17.20;73.00;;;;;;6250974;28;20484;-78
2023/06/13 04:41:48;;;;;;;7.80;3.58;;;17.40;72.00;;;;;;6250465;28;20049;-79
2023/06/13 04:44:56;;;;;;;6.30;3.47;;;17.50;71.80;;;;;;6250327;28;20142;-79
2023/06/13 04:48:01;;;;;;;6.78;3.42;;;17.30;72.30;;;;;;6250644;28;20056;-79
2023/06/13 04:51:03;;;;;;;7.50;3.50;;;17.10;72.30;;;;;;6250654;28;20049;-78
2023/06/13 04:54:09;;;;;;;7.25;3.40;;;17.50;73.30;;;;;;6250313;28;20056;-78
2023/06/13 04:57:10;;;;;;;6.80;3.35;;;17.70;70.90;;;;;;6250229;28;20132;-78
2023/06/13 05:00:15;;;;;;;9.57;3.60;;;17.70;69.80;;;;;;6249161;28;20041;-79
2023/06/13 05:03:17;;;;;;;8.18;3.70;;;17.60;70.30;;;;;;6225863;28;20046;-78
2023/06/13 05:06:19;;;;;;;7.22;3.33;;;17.50;70.60;;;;;;6236061;28;20060;-78
2023/06/13 05:09:21;;;;;;;5.68;3.33;;;17.50;69.20;;;;;;6250245;28;20053;-78
2023/06/13 05:12:23;;;;;;;5.10;3.03;;;17.70;69.00;;;;;;6249378;28;20055;-78
2023/06/13 05:15:26;;;;;;;7.47;3.22;;;17.70;68.50;;;;;;6249935;28;20053;-78
2023/06/13 05:18:29;;;;;;;9.10;3.30;;;17.80;68.10;;;;;;6249809;28;20041;-78
2023/06/13 05:21:31;;;;;;;7.07;3.40;;;18.00;68.10;;;;;;6249914;28;20049;-77
2023/06/13 05:24:34;;;;;;;5.15;3.20;;;17.90;66.60;;;;;;6249569;28;20495;-78
2023/06/13 05:27:36;;;;;;;6.35;2.90;;;18.00;66.00;;;;;;6249746;28;20052;-77
2023/06/13 05:30:39;;;;;;;7.28;3.20;;;17.70;65.50;;;;;;6249252;28;20543;-78
2023/06/13 05:33:41;;;;;;;8.57;2.95;;;17.90;66.30;;;;;;6249304;28;20053;-79
2023/06/13 05:36:43;;;;;;;5.50;3.10;;;17.90;66.60;;;;;;6249430;28;20046;-78
2023/06/13 05:39:45;;;;;;;8.65;2.85;;;18.00;66.50;;;;;;6248869;28;20387;-78
2023/06/13 05:42:47;;;;;;;6.60;2.97;;;18.10;64.40;;;;;;6248935;28;20053;-77
2023/06/13 05:45:50;;;;;;;8.25;2.85;;;18.00;64.00;;;;;;6248948;28;20231;-77
2023/06/13 05:48:52;;;;;;;6.93;2.75;;;18.10;63.90;;;;;;6248939;28;20409;-78
2023/06/13 05:51:54;;;;;;;6.18;3.00;;;18.10;62.50;;;;;;6249035;28;20042;-78
2023/06/13 05:54:56;;;;;;;6.43;2.88;;;18.20;61.20;;;;;;6249122;28;20124;-78
2023/06/13 05:57:58;;;;;;;7.15;2.50;;;18.40;61.10;;;;;;6248322;28;20049;-78
2023/06/13 06:01:03;;;;;;;6.60;2.95;;;18.40;60.00;;;;;;6248498;28;20395;-78
2023/06/13 06:04:05;;;;;;;6.30;2.75;;;18.40;59.30;;;;;;6248611;28;20052;-78
2023/06/13 06:07:07;;;;;;;7.07;2.90;;;18.60;58.90;;;;;;6248558;28;20046;-71
2023/06/13 06:10:10;;;;;;;6.32;2.88;;;18.70;63.20;;;;;;6248424;28;20045;-72
2023/06/13 06:13:12;;;;;;;4.78;2.75;;;18.80;60.00;;;;;;6248160;28;20053;-71
2023/06/13 06:16:15;;;;;;;6.63;2.58;;;19.00;59.20;;;;;;6248493;28;20056;-72
2023/06/13 06:19:17;;;;;;;7.35;2.70;;;19.10;58.10;;;;;;6248305;28;20187;-72
2023/06/13 06:22:19;;;;;;;4.43;2.63;;;19.10;57.10;;;;;;6248205;28;20042;-72
2023/06/13 06:25:21;;;;;;;4.80;2.55;;;19.20;57.80;;;;;;6247773;28;20501;-72
2023/06/13 06:28:23;;;;;;;8.95;2.75;;;19.30;58.30;;;;;;6247896;28;20042;-72
2023/06/13 06:31:27;;;;;;;6.07;2.58;;;19.20;58.20;;;;;;6247299;28;20053;-72
2023/06/13 06:34:29;;;;;;;6.28;2.58;;;19.30;57.40;;;;;;6247926;28;20091;-72
2023/06/13 06:37:32;;;;;;;4.93;2.60;;;19.40;56.50;;;;;;6247871;28;20056;-72
2023/06/13 06:40:33;;;;;;;5.57;2.80;;;19.40;58.10;;;;;;6248162;28;20081;-72
2023/06/13 06:43:36;;;;;;;5.00;2.67;;;19.60;58.70;;;;;;6247278;28;20049;-72
2023/06/13 06:46:39;;;;;;;8.03;2.73;;;19.60;57.20;;;;;;6247476;28;20150;-72
2023/06/13 06:49:41;;;;;;;5.68;2.85;;;19.70;57.60;;;;;;6247694;28;20056;-72
2023/06/13 06:52:43;;;;;;;5.07;2.88;;;19.60;57.70;;;;;;6247228;28;20056;-72
2023/06/13 06:55:45;;;;;;;9.18;2.75;;;19.70;56.80;;;;;;6247438;28;20041;-72
2023/06/13 06:58:47;;;;;;;5.07;2.38;;;19.60;56.40;;;;;;6247600;28;20053;-72
2023/06/13 07:01:51;;;;;;;5.15;2.70;;;19.60;56.60;;;;;;6247799;28;20049;-72
2023/06/13 07:04:53;;;;;;;7.05;3.05;;;19.80;56.10;;;;;;6247572;28;20049;-72
2023/06/13 07:07:55;;;;;;;5.65;2.65;;;19.90;56.90;;;;;;6247711;28;20058;-72
2023/06/13 07:10:57;;;;;;;4.43;2.40;;;20.00;56.30;;;;;;6247015;28;20061;-72
2023/06/13 07:13:58;;;;;;;4.55;2.70;;;20.10;55.50;;;;;;6247606;28;20050;-72
2023/06/13 07:17:02;;;;;;;8.63;2.65;;;19.90;55.10;;;;;;6247373;28;20411;-72
2023/06/13 07:20:08;;;;;;;;;;;19.90;55.50;;;;;;6248111;28;20041;-72
2023/06/13 07:23:10;;;;;;;4.45;2.67;;;19.90;56.00;;;;;;6247303;28;20287;-72
2023/06/13 07:26:12;;;;;;;4.40;2.50;;;20.10;55.50;;;;;;6246878;28;20060;-72
2023/06/13 07:29:13;;;;;;;5.10;2.75;;;20.10;54.90;;;;;;6247325;28;20475;-72
2023/06/13 07:32:17;;;;;;;7.07;2.70;;;20.10;54.20;;;;;;6247326;28;20080;-72
2023/06/13 07:35:23;;;;;;;6.03;2.88;;;20.20;53.40;;;;;;6246989;28;20093;-72
2023/06/13 07:38:25;;;;;;;7.25;2.40;;;20.30;54.50;;;;;;6247106;28;20120;-72
2023/06/13 07:41:34;;;;;;;7.50;2.92;;;20.30;52.80;;;;;;6247302;28;20061;-72
2023/06/13 07:44:35;;;;;;;4.88;2.55;;;20.20;53.20;;;;;;6247078;28;20060;-72
2023/06/13 07:47:39;;;;;;;4.70;2.47;;;20.30;54.30;;;;;;6247089;28;20412;-72
2023/06/13 07:50:42;;;;;;;7.63;3.65;;;20.40;54.30;;;;;;6246779;28;20049;-72
2023/06/13 07:53:43;;;;;;;8.23;3.00;;;20.40;53.50;;;;;;6247187;28;20049;-72
2023/06/13 07:56:47;;;;;;;6.70;2.90;;;20.50;54.10;;;;;;6246797;28;20561;-72
2023/06/13 07:59:49;;;;;;;4.38;2.53;;;20.50;54.10;;;;;;6246941;28;20475;-73
2023/06/13 08:02:52;;;;;;;5.82;2.70;;;20.60;53.50;;;;;;6247343;28;20500;-72
2023/06/13 08:05:54;;;;;;;6.28;2.58;;;20.70;54.60;;;;;;6251012;28;20057;-72
2023/06/13 08:08:56;;;;;;;6.15;3.10;;;20.70;54.60;;;;;;6261840;28;20429;-73
2023/06/13 08:11:58;;;;;;;7.03;3.00;;;20.70;52.00;;;;;;6251132;28;20056;-71
2023/06/13 08:15:00;;;;;;;4.75;2.72;;;20.80;52.40;;;;;;6250278;28;20049;-71
2023/06/13 08:18:03;;;;;;;5.43;2.50;;;20.80;52.60;;;;;;6249885;28;20072;-72
2023/06/13 08:21:05;;;;;;;5.68;2.60;;;20.70;52.80;;;;;;6250618;28;20048;-71
2023/06/13 08:24:07;;;;;;;5.85;2.92;;;20.90;53.00;;;;;;6250329;28;20050;-71
2023/06/13 08:27:10;;;;;;;6.75;3.15;;;20.90;53.00;;;;;;6249734;28;20475;-72
2023/06/13 08:30:12;;;;;;;8.55;2.88;;;20.90;52.60;;;;;;6250607;28;20542;-71
2023/06/13 08:33:16;;;;;;;4.83;2.57;;;20.90;51.90;;;;;;6250483;28;20049;-72
2023/06/13 08:36:17;;;;;;;7.18;3.00;;;21.00;53.10;;;;;;6249869;28;20053;-71
2023/06/13 08:39:20;;;;;;;8.02;2.95;;;21.00;51.80;;;;;;6250414;28;20045;-71
2023/06/13 08:42:24;;;;;;;5.10;2.90;;;20.90;51.40;;;;;;6249727;28;20050;-71
2023/06/13 08:45:26;;;;;;;7.05;2.78;;;20.80;51.10;;;;;;6249516;28;20501;-71
2023/06/13 08:48:32;;;;;;;4.35;2.63;;;20.90;52.60;;;;;;6249993;28;20239;-71
2023/06/13 08:51:35;;;;;;;6.93;2.92;;;21.00;52.60;;;;;;6249507;28;20056;-71
2023/06/13 08:54:37;;;;;;;7.75;2.65;;;21.10;51.70;;;;;;6249344;28;20057;-73
2023/06/13 08:57:40;;;;;;;6.10;2.60;;;21.20;51.00;;;;;;6249545;28;20057;-71
2023/06/13 09:00:45;;;;;;;5.97;2.50;;;21.30;51.00;;;;;;6249723;28;20050;-71
2023/06/13 09:03:48;;;;;;;5.53;2.75;;;21.40;51.80;;;;;;6249493;28;20049;-72
2023/06/13 09:06:50;;;;;;;;;;;21.40;50.60;;;;;;6249978;28;20049;-72
2023/06/13 09:09:54;;;;;;;6.47;2.70;;;21.40;54.50;;;;;;6249441;28;19925;-72
2023/06/13 09:12:57;;;;;;;6.25;2.92;;;21.50;53.40;;;;;;6249487;28;20095;-72
2023/06/13 09:16:00;;;;;;;;;;;21.50;52.00;;;;;;6249476;28;20049;-72
2023/06/13 09:19:03;;;;;;;7.22;2.97;;;21.50;51.50;;;;;;6249477;28;19925;-71
2023/06/13 09:22:06;;;;;;;6.68;2.90;;;21.60;50.80;;;;;;6249004;28;20132;-71
2023/06/13 09:25:09;;;;;;;7.20;2.70;;;21.50;49.70;;;;;;6259060;28;20505;-71
2023/06/13 09:28:37;;;;;;;5.78;2.90;;;21.60;48.80;;;;;;6262147;28;20052;-72
2023/06/13 09:31:39;;;;;;;6.13;2.72;;;21.70;49.80;;;;;;6259261;28;20061;-71
2023/06/13 09:34:45;;;;;;;6.30;2.63;;;21.70;48.10;;;;;;6248682;28;20088;-72
2023/06/13 09:37:47;;;;;;;8.68;2.88;;;21.70;48.90;;;;;;6248885;28;20503;-72
2023/06/13 09:40:49;;;;;;;7.45;2.83;;;21.70;48.00;;;;;;6248803;28;20045;-73
2023/06/13 09:43:53;;;;;;;5.88;2.90;;;21.70;48.50;;;;;;6248864;28;20057;-71
2023/06/13 09:46:55;;;;;;;7.20;2.67;;;21.50;47.80;;;;;;6248777;28;20480;-73
2023/06/13 09:50:00;;;;;;;8.13;3.10;;;21.60;48.90;;;;;;6248486;28;20045;-72
2023/06/13 09:53:02;;;;;;;7.55;2.75;;;21.80;48.10;;;;;;6248449;28;20050;-73
2023/06/13 09:56:09;;;;;;;6.10;3.00;;;21.70;47.30;;;;;;6248374;28;20053;-72
2023/06/13 09:59:17;;;;;;;6.85;2.83;;;21.80;48.80;;;;;;6249110;28;20052;-71
2023/06/13 10:02:21;;;;;;;6.38;2.72;;;21.90;47.60;;;;;;6248693;28;20049;-71
2023/06/13 10:05:25;;;;;;;4.95;2.55;;;21.90;47.80;;;;;;6248696;28;20411;-73
2023/06/13 10:08:27;;;;;;;7.50;2.60;;;22.00;47.70;;;;;;6248385;28;20056;-74
2023/06/13 10:11:34;;;;;;;5.40;2.83;;;21.90;47.40;;;;;;6248519;28;20273;-73
2023/06/13 10:14:40;;;;;;;5.90;2.90;;;22.00;47.40;;;;;;6248358;28;20042;-73
2023/06/13 10:17:46;;;;;;;5.10;2.78;;;22.10;47.30;;;;;;6246905;28;20060;-73
2023/06/13 10:20:50;;;;;;;5.80;2.78;;;22.10;47.70;;;;;;6247657;28;20049;-73
2023/06/13 10:23:53;;;;;;;9.75;2.90;;;22.10;47.80;;;;;;6247859;28;20050;-73
2023/06/13 10:26:59;;;;;;;7.15;2.95;;;22.20;48.00;;;;;;6247914;28;20057;-72
2023/06/13 10:30:27;;;;;;;5.18;2.90;;;22.30;47.30;;;;;;6247628;28;20411;-72
2023/06/13 10:34:14;;;;;;;6.75;2.80;;;22.20;48.10;;;;;;6247395;28;20080;-72
2023/06/13 10:37:44;;;;;;;7.22;3.15;;;22.40;49.20;;;;;;6218905;28;20049;-72
2023/06/13 10:41:18;;;;;;;6.32;3.00;;;22.50;47.60;;;;;;6223274;28;20049;-72
2023/06/13 10:44:25;;;;;;;7.80;3.20;;;22.60;46.90;;;;;;6222868;28;20053;-73
2023/06/13 10:47:30;;;;;;;6.25;2.90;;;22.60;46.80;;;;;;6238600;28;20103;-72
2023/06/13 10:50:37;;;;;;;5.47;2.95;;;22.50;46.20;;;;;;6247584;28;20053;-72
2023/06/13 10:53:42;;;;;;;5.47;2.88;;;22.60;46.60;;;;;;6247294;28;20042;-72
2023/06/13 10:56:44;;;;;;;7.80;3.00;;;22.70;47.50;;;;;;6246497;28;20085;-73
2023/06/13 10:59:49;;;;;;;6.97;3.03;;;22.80;46.90;;;;;;6247568;28;20049;-73
2023/06/13 11:02:59;;;;;;;6.00;2.88;;;22.80;45.60;;;;;;6247148;28;20103;-72
2023/06/13 11:06:06;;;;;;;6.70;2.70;;;22.90;44.90;;;;;;6247477;28;20049;-71
2023/06/13 11:09:15;;;;;;;5.18;3.00;;;22.90;44.80;;;;;;6222624;28;20404;-72
2023/06/13 11:12:17;;;;;;;5.68;2.95;;;22.90;44.90;;;;;;6242330;28;20053;-72
2023/06/13 11:15:24;;;;;;;9.50;3.15;;;22.90;45.70;;;;;;6247111;28;20052;-72
2023/06/13 11:18:30;;;;;;;5.47;2.90;;;23.00;45.40;;;;;;6246885;28;20692;-71
2023/06/13 11:21:32;;;;;;;6.72;2.95;;;23.00;46.40;;;;;;6246961;28;20052;-71
2023/06/13 11:24:36;;;;;;;9.63;3.22;;;23.10;45.40;;;;;;6246728;28;20056;-73
2023/06/13 11:27:38;;;;;;;6.82;3.30;;;23.20;44.70;;;;;;6246665;28;20050;-73
2023/06/13 11:30:42;;;;;;;5.35;3.00;;;23.20;44.60;;;;;;6246575;28;20407;-73
2023/06/13 11:33:48;;;;;;;7.38;2.83;;;23.20;45.60;;;;;;6246604;28;20056;-71
2023/06/13 11:36:52;;;;;;;7.25;2.97;;;23.40;45.90;;;;;;6247515;28;20064;-78
2023/06/13 11:39:57;;;;;;;6.70;3.25;;;23.40;46.70;;;;;;6251445;28;20054;-81
2023/06/13 11:42:59;;;;;;;5.75;2.90;;;23.60;45.00;;;;;;6251847;28;20504;-81
2023/06/13 11:46:04;;;;;;;7.13;3.20;;;23.80;44.40;;;;;;6251113;28;20521;-80
2023/06/13 11:49:07;;;;;;;8.45;2.80;;;24.00;44.70;;;;;;6251167;28;20188;-82
2023/06/13 11:52:14;;;;;;;7.05;3.20;;;24.10;44.70;;;;;;6251585;28;20479;-83
2023/06/13 11:55:18;;;;;;;6.47;3.28;;;24.10;43.70;;;;;;6251745;28;20045;-83
2023/06/13 11:58:30;;;;;;;5.35;3.15;;;24.20;44.40;;;;;;6251326;28;20053;-82
2023/06/13 12:01:32;;;;;;;10.02;3.10;;;24.30;43.60;;;;;;6251383;28;20046;-82
2023/06/13 12:04:34;;;;;;;7.40;3.30;;;24.40;44.70;;;;;;6250698;28;20045;-83
2023/06/13 12:07:36;;;;;;;8.98;3.38;;;24.50;44.00;;;;;;6251296;28;20483;-83
2023/06/13 12:10:40;;;;;;;6.72;3.30;;;24.60;44.10;;;;;;6251470;28;20360;-83
2023/06/13 12:13:41;;;;;;;;;;;24.60;42.70;;;;;;6251454;28;20050;-83
2023/06/13 12:16:43;;;;;;;6.60;4.30;;;24.70;43.10;;;;;;6250816;28;19932;-83
2023/06/13 12:19:45;;;;;;;7.03;3.30;;;24.70;42.10;;;;;;6250731;28;20061;-84
2023/06/13 12:22:47;;;;;;;5.57;2.90;;;24.70;42.40;;;;;;6250830;28;20048;-83
2023/06/13 12:25:51;;;;;;;5.25;3.13;;;24.90;42.50;;;;;;6250382;28;20403;-84
2023/06/13 12:28:56;;;;;;;7.72;3.22;;;24.80;41.40;;;;;;6250976;28;20061;-83
2023/06/13 12:31:59;;;;;;;6.93;2.92;;;24.90;42.00;;;;;;6261195;28;20138;-81
2023/06/13 12:35:03;;;;;;;6.28;2.92;;;25.10;42.10;;;;;;6250472;28;20072;-82
2023/06/13 12:38:04;;;;;;;6.97;3.38;;;25.40;42.10;;;;;;6250648;28;20475;-83
2023/06/13 12:41:15;;;;;;;6.93;3.03;;;25.60;41.60;;;;;;6250429;28;20052;-84
2023/06/13 12:44:18;;;;;;;7.88;3.10;;;25.60;40.10;;;;;;6250120;28;20045;-82
2023/06/13 12:47:20;;;;;;;10.60;3.05;;;25.40;40.10;;;;;;6250213;28;20060;-83
2023/06/13 12:50:24;;;;;;;7.05;3.10;;;25.60;40.60;;;;;;6249569;28;20049;-83
2023/06/13 12:53:26;;;;;;;11.15;7.40;;;25.60;39.80;;;;;;6250236;28;20150;-83
2023/06/13 12:56:30;;;;;;;7.47;4.72;;;25.80;41.10;;;;;;6249789;28;20049;-86
2023/06/13 12:59:32;;;;;;;;;;;25.90;41.00;;;;;;6250749;28;20045;-83
2023/06/13 13:02:34;;;;;;;7.13;3.22;;;26.10;41.20;;;;;;6250056;28;19932;-81
2023/06/13 13:05:37;;;;;;;8.07;3.35;;;26.10;40.90;;;;;;6249750;28;20041;-84
2023/06/13 13:08:38;;;;;;;5.83;3.30;;;26.20;41.70;;;;;;6249466;28;20119;-83
2023/06/13 13:11:42;;;;;;;6.38;3.03;;;26.30;41.70;;;;;;6249864;28;20308;-83
2023/06/13 13:14:43;;;;;;;;;;;26.40;41.10;;;;;;6250287;28;20049;-83
2023/06/13 13:17:45;;;;;;;6.07;3.08;;;26.40;40.40;;;;;;6249716;28;19928;-83
2023/06/13 13:20:47;;;;;;;7.25;3.15;;;26.60;41.30;;;;;;6249875;28;20053;-83
2023/06/13 13:23:49;;;;;;;8.27;3.40;;;26.60;39.80;;;;;;6249379;28;20041;-83
2023/06/13 13:26:54;;;;;;;7.65;3.28;;;26.70;40.90;;;;;;6249628;28;20046;-82
2023/06/13 13:29:56;;;;;;;6.28;3.17;;;26.80;40.30;;;;;;6249284;28;20450;-82
2023/06/13 13:32:58;;;;;;;7.85;3.60;;;26.90;41.10;;;;;;6249887;28;20049;-82
2023/06/13 13:36:00;;;;;;;7.68;3.28;;;26.80;40.90;;;;;;6249869;28;20046;-82
2023/06/13 13:39:02;;;;;;;6.25;3.53;;;26.80;40.40;;;;;;6249412;28;20052;-83
2023/06/13 13:42:07;;;;;;;8.25;3.50;;;27.10;40.00;;;;;;6249471;28;20058;-83
2023/06/13 13:45:09;;;;;;;13.75;3.55;;;27.30;40.40;;;;;;6249605;28;20099;-83
2023/06/13 13:48:13;;;;;;;7.00;3.42;;;27.30;39.00;;;;;;6249290;28;20052;-83
2023/06/13 13:51:15;;;;;;;7.70;3.38;;;27.20;39.40;;;;;;6248833;28;20136;-83
2023/06/13 13:54:17;;;;;;;8.00;3.03;;;27.40;39.00;;;;;;6248990;28;20046;-83
2023/06/13 13:57:20;;;;;;;7.13;3.22;;;27.50;38.50;;;;;;6248516;28;20041;-83
2023/06/13 14:00:22;;;;;;;5.85;3.20;;;27.50;39.00;;;;;;6248237;28;20052;-83
2023/06/13 14:03:25;;;;;;;7.90;3.55;;;27.40;39.00;;;;;;6248431;28;20455;-82
2023/06/13 14:06:26;;;;;;;7.18;3.67;;;27.50;39.40;;;;;;6248708;28;20046;-83
2023/06/13 14:09:28;;;;;;;5.55;3.13;;;27.50;39.00;;;;;;6248532;28;20419;-82
2023/06/13 14:12:32;;;;;;;5.28;3.15;;;27.60;38.50;;;;;;6249643;28;20041;-83
2023/06/13 14:15:34;;;;;;;5.68;3.65;;;27.50;38.80;;;;;;6249244;28;20072;-83
2023/06/13 14:18:36;;;;;;;5.73;3.00;;;27.80;39.80;;;;;;6248247;28;20093;-83
2023/06/13 14:21:38;;;;;;;6.72;3.35;;;28.10;40.50;;;;;;6248364;28;20491;-82
2023/06/13 14:24:40;;;;;;;7.95;3.40;;;28.10;39.80;;;;;;6247502;28;20049;-83
2023/06/13 14:27:43;;;;;;;5.30;3.28;;;28.20;39.50;;;;;;6245253;28;20064;-84
2023/06/13 14:30:45;;;;;;;7.88;3.40;;;28.10;39.80;;;;;;6245528;28;20053;-85
2023/06/13 14:33:48;;;;;;;6.82;3.30;;;28.20;40.40;;;;;;6245851;28;20084;-83
2023/06/13 14:36:54;;;;;;;6.43;3.45;;;28.10;39.50;;;;;;6245832;28;20057;-83
2023/06/13 14:39:56;;;;;;;7.10;3.03;;;28.30;40.10;;;;;;6245124;28;20495;-84
2023/06/13 14:42:59;;;;;;;6.60;3.40;;;28.40;39.80;;;;;;6244684;28;20064;-82
2023/06/13 14:46:03;;;;;;;6.20;3.60;;;28.60;39.50;;;;;;6245367;28;20041;-82
2023/06/13 14:49:05;;;;;;;6.55;3.22;;;28.70;39.20;;;;;;6243689;28;20486;-83
2023/06/13 14:52:08;;;;;;;6.20;3.00;;;28.60;39.00;;;;;;6260538;28;20045;-84
2023/06/13 14:55:10;;;;;;;5.65;3.40;;;28.70;38.80;;;;;;6266180;28;20049;-85
2023/06/13 14:58:13;;;;;;;12.80;4.57;;;28.50;39.10;;;;;;6270951;28;20045;-84
2023/06/13 15:01:15;;;;;;;8.57;3.10;;;28.30;38.40;;;;;;6267883;28;20430;-84
2023/06/13 15:04:17;;;;;;;8.02;3.15;;;28.50;38.90;;;;;;6257860;28;20053;-84
2023/06/13 15:07:18;;;;;;;6.40;3.35;;;28.70;39.20;;;;;;6245031;28;20053;-85
2023/06/13 15:10:20;;;;;;;6.43;3.25;;;28.80;39.00;;;;;;6244996;28;20072;-84
2023/06/13 15:13:23;;;;;;;7.43;3.35;;;28.90;38.80;;;;;;6262405;28;20869;-84
2023/06/13 15:16:26;;;;;;;8.15;3.50;;;28.90;38.50;;;;;;6273103;28;20049;-85
2023/06/13 15:19:28;;;;;;;;;;;29.00;38.10;;;;;;6251087;28;20045;-83
2023/06/13 15:22:30;;;;;;;5.70;3.28;;;29.10;37.50;;;;;;6256948;28;19931;-84
2023/06/13 15:25:32;;;;;;;6.80;3.25;;;29.00;38.10;;;;;;6245755;28;20042;-83
2023/06/13 15:28:35;;;;;;;7.78;3.25;;;29.00;37.90;;;;;;6247629;28;20483;-83
2023/06/13 15:31:37;;;;;;;8.02;3.10;;;29.20;38.20;;;;;;6249203;28;20115;-84
2023/06/13 15:34:39;;;;;;;5.68;3.20;;;29.00;37.80;;;;;;6249478;28;20046;-84
2023/06/13 15:37:42;;;;;;;6.65;3.30;;;29.20;38.10;;;;;;6249242;28;20049;-83
2023/06/13 15:40:44;;;;;;;;;;;29.10;37.80;;;;;;6264012;28;20131;-83
2023/06/13 15:43:47;;;;;;;5.80;3.38;;;29.10;38.20;;;;;;6274208;28;19931;-84
2023/06/13 15:46:49;;;;;;;8.95;3.50;;;29.30;38.10;;;;;;6253473;28;20052;-81
2023/06/13 15:49:51;;;;;;;8.27;3.40;;;29.50;37.70;;;;;;6248722;28;20439;-83
2023/06/13 15:52:54;;;;;;;5.18;3.15;;;29.60;37.40;;;;;;6249139;28;20064;-84
2023/06/13 15:56:01;;;;;;;;;;;29.60;37.60;;;;;;6249288;28;20534;-83
2023/06/13 15:59:04;;;;;;;6.05;3.50;;;29.60;37.70;;;;;;6273463;28;20529;-84